^^
Meteo Knjazevac Station Historical Data
Daily Summary for April 29, 2021 Units:  English    Metric   Both
Daily Weekly Monthly Yearly Custom
  High: Low: Average:
Temperature: 69.4 °F 57.9 °F 62 °F
Dew Point: 61.7 °F 56.8 °F 58.5 °F
Humidity: 99% 75% 89%
Wind Speed: 10mph 0mph 3.8mph
Wind Gust: 15mph - -
Wind- - SW
Pressure: 29.95 in 29.91 in -
Precipitation: 0.20 in    
Historical Graphs
 
 
Tabular Data for April 29, 2021
Time Temperature Dew Point Pressure Wind Wind Speed Wind Gust Humidity Rainfall Rate (Hourly) solar Conditions
00:00 62.2 °F 57.3 °F 29.93 in SW 3 mph 9 mph 84% 0.00 in 0 W/m2
00:10 62.2 °F 57.3 °F 29.92 in SSW 1 mph 6 mph 84% 0.00 in 0 W/m2
00:20 61.9 °F 57 °F 29.92 in SSW 3 mph 5 mph 84% 0.00 in 0 W/m2
00:30 61.7 °F 57.1 °F 29.93 in SW 2 mph 5 mph 85% 0.00 in 0 W/m2
00:40 61.6 °F 57.1 °F 29.93 in SW 3 mph 6 mph 85% 0.00 in 0 W/m2
00:50 61.4 °F 57.2 °F 29.93 in SW 5 mph 10 mph 86% 0.00 in 0 W/m2
01:00 61.3 °F 57.1 °F 29.93 in SW 5 mph 8 mph 86% 0.00 in 0 W/m2
01:10 61.2 °F 56.9 °F 29.93 in SW 6 mph 9 mph 86% 0.00 in 0 W/m2
01:20 61 °F 56.8 °F 29.93 in SW 2 mph 7 mph 86% 0.00 in 0 W/m2
01:30 61 °F 56.8 °F 29.93 in West 1 mph 4 mph 86% 0.00 in 0 W/m2
01:40 61 °F 56.8 °F 29.93 in SW 1 mph 2 mph 86% 0.00 in 0 W/m2
01:50 61 °F 56.8 °F 29.93 in SW 3 mph 5 mph 86% 0.00 in 0 W/m2
02:00 61 °F 56.8 °F 29.93 in SW 2 mph 5 mph 86% 0.00 in 0 W/m2
02:10 61 °F 56.8 °F 29.93 in SW 2 mph 5 mph 86% 0.00 in 0 W/m2
02:20 61 °F 56.8 °F 29.93 in SW 3 mph 6 mph 86% 0.00 in 0 W/m2
02:30 61 °F 56.8 °F 29.93 in SW 2 mph 4 mph 86% 0.00 in 0 W/m2
02:40 61.2 °F 56.9 °F 29.93 in SW 3 mph 5 mph 86% 0.00 in 0 W/m2
02:50 61 °F 58 °F 29.93 in SW 2 mph 6 mph 90% 0.08 in 0 W/m2
03:00 60.4 °F 58.3 °F 29.94 in SSW 3 mph 6 mph 93% 0.07 in 0 W/m2
03:10 60.1 °F 58.3 °F 29.93 in ESE 1 mph 6 mph 94% 0.00 in 0 W/m2
03:20 59.9 °F 58.5 °F 29.93 in ENE 3 mph 5 mph 95% 0.04 in 0 W/m2
03:30 59.9 °F 58.8 °F 29.93 in ENE 2 mph 4 mph 96% 0.03 in 0 W/m2
03:40 59.9 °F 58.8 °F 29.93 in ENE 2 mph 3 mph 96% 0.00 in 0 W/m2
03:50 59.9 °F 58.8 °F 29.93 in Calm   2 mph 96% 0.00 in 0 W/m2
04:00 59.7 °F 58.6 °F 29.93 in SSE 1 mph 3 mph 96% 0.00 in 0 W/m2
04:10 59.7 °F 59.2 °F 29.93 in SSW 2 mph 5 mph 98% 0.00 in 0 W/m2
04:20 59.5 °F 58.4 °F 29.92 in ENE 1 mph 2 mph 96% 0.00 in 0 W/m2
04:30 59.7 °F 58.9 °F 29.93 in South 2 mph 3 mph 97% 0.00 in 0 W/m2
04:40 59.5 °F 58.4 °F 29.92 in ESE 1 mph 3 mph 96% 0.00 in 0 W/m2
04:50 59.5 °F 59 °F 29.92 in SE 2 mph 3 mph 98% 0.00 in 0 W/m2
05:00 59.4 °F 58.2 °F 29.92 in South 2 mph 4 mph 96% 0.00 in 0 W/m2
05:10 59.2 °F 58 °F 29.91 in SSW 2 mph 3 mph 96% 0.00 in 0 W/m2
05:20 59 °F 57.9 °F 29.91 in SW 2 mph 4 mph 96% 0.00 in 0 W/m2
05:30 58.6 °F 58.1 °F 29.92 in SW 3 mph 5 mph 98% 0.00 in 0 W/m2
05:40 58.5 °F 57.9 °F 29.92 in SSW 5 mph 7 mph 98% 0.00 in 0 W/m2
05:50 58.3 °F 57.7 °F 29.93 in SW 6 mph 8 mph 98% 0.00 in 0 W/m2
06:00 58.1 °F 57.5 °F 29.93 in SSW 3 mph 8 mph 98% 0.00 in 5 W/m2
06:10 58.1 °F 57.5 °F 29.93 in SSW 3 mph 6 mph 98% 0.00 in 9 W/m2
06:20 57.9 °F 57.4 °F 29.93 in SSW 3 mph 6 mph 98% 0.00 in 18 W/m2
06:30 58.1 °F 57.5 °F 29.93 in SSW 3 mph 5 mph 98% 0.00 in 28 W/m2
06:40 58.2 °F 57.9 °F 29.93 in SSW 3 mph 5 mph 99% 0.00 in 25 W/m2
06:50 58.3 °F 58 °F 29.94 in SSW 3 mph 6 mph 99% 0.00 in 27 W/m2
07:00 58.5 °F 58.2 °F 29.94 in SSW 5 mph 6 mph 99% 0.00 in 29 W/m2
07:10 58.5 °F 57.9 °F 29.94 in SW 5 mph 7 mph 98% 0.00 in 81 W/m2
07:20 58.7 °F 58.2 °F 29.94 in SSW 2 mph 7 mph 98% 0.00 in 94 W/m2
07:30 59.2 °F 58 °F 29.94 in SW 3 mph 7 mph 96% 0.00 in 93 W/m2
07:40 59.2 °F 58 °F 29.94 in SW 3 mph 6 mph 96% 0.00 in 98 W/m2
07:50 59.4 °F 58.2 °F 29.94 in SW 1 mph 5 mph 96% 0.00 in 117 W/m2
08:00 59.5 °F 58.4 °F 29.94 in SW 2 mph 3 mph 96% 0.00 in 137 W/m2
08:10 59.9 °F 58.8 °F 29.94 in SW 1 mph 3 mph 96% 0.00 in 102 W/m2
08:20 60.1 °F 58.6 °F 29.94 in South 2 mph 5 mph 95% 0.00 in 115 W/m2
08:30 60.3 °F 58.8 °F 29.94 in SW 2 mph 4 mph 95% 0.00 in 78 W/m2
08:40 60.3 °F 58.8 °F 29.94 in SW 5 mph 6 mph 95% 0.00 in 134 W/m2
08:50 60.3 °F 58.5 °F 29.94 in SW 3 mph 7 mph 94% 0.00 in 154 W/m2
09:00 60.3 °F 58.8 °F 29.95 in SW 2 mph 8 mph 95% 0.00 in 115 W/m2
09:10 60.3 °F 58.5 °F 29.95 in SW 5 mph 8 mph 94% 0.00 in 70 W/m2
09:20 60.1 °F 58.3 °F 29.95 in SW 3 mph 8 mph 94% 0.00 in 57 W/m2
09:30 60.1 °F 58.3 °F 29.95 in SW 5 mph 7 mph 94% 0.00 in 86 W/m2
09:40 59.9 °F 58.2 °F 29.95 in SW 7 mph 8 mph 94% 0.00 in 124 W/m2
09:50 59.6 °F 57.9 °F 29.95 in SW 5 mph 11 mph 94% 0.00 in 95 W/m2
10:00 59.5 °F 57.8 °F 29.95 in SW 3 mph 7 mph 94% 0.00 in 128 W/m2
10:10 59.5 °F 58.1 °F 29.95 in SW 2 mph 6 mph 95% 0.00 in 103 W/m2
10:20 59.7 °F 58 °F 29.95 in SW 5 mph 7 mph 94% 0.00 in 109 W/m2
10:30 59.7 °F 58 °F 29.95 in SW 5 mph 7 mph 94% 0.00 in 135 W/m2
10:40 59.9 °F 58.2 °F 29.95 in SSW 3 mph 6 mph 94% 0.00 in 136 W/m2
10:50 60.2 °F 58.5 °F 29.95 in SSW 3 mph 6 mph 94% 0.00 in 143 W/m2
11:00 60.3 °F 58.5 °F 29.95 in SW 2 mph 6 mph 94% 0.00 in 171 W/m2
11:10 60.3 °F 58.2 °F 29.95 in SW 5 mph 8 mph 93% 0.00 in 218 W/m2
11:20 60.4 °F 58.4 °F 29.95 in SW 3 mph 8 mph 93% 0.00 in 208 W/m2
11:30 60.6 °F 58 °F 29.95 in SW 5 mph 8 mph 91% 0.00 in 135 W/m2
11:40 60.4 °F 57.8 °F 29.95 in SW 6 mph 11 mph 91% 0.00 in 129 W/m2
11:50 60.4 °F 57.8 °F 29.95 in SW 5 mph 8 mph 91% 0.00 in 181 W/m2
12:00 60.6 °F 57.6 °F 29.95 in SW 5 mph 9 mph 90% 0.00 in 222 W/m2
12:10 60.8 °F 57.8 °F 29.95 in SW 5 mph 10 mph 90% 0.00 in 239 W/m2
12:20 61.1 °F 58.1 °F 29.94 in SSW 5 mph 8 mph 90% 0.00 in 367 W/m2
12:30 61.8 °F 58.9 °F 29.94 in SSW 6 mph 8 mph 90% 0.00 in 405 W/m2
12:40 62.6 °F 59.3 °F 29.94 in SSW 5 mph 9 mph 89% 0.00 in 461 W/m2
12:50 63.3 °F 59.7 °F 29.93 in SSW 5 mph 8 mph 88% 0.00 in 614 W/m2
13:00 64.2 °F 59.9 °F 29.93 in SW 5 mph 9 mph 86% 0.00 in 506 W/m2
13:10 64.6 °F 59.6 °F 29.93 in SSW 5 mph 9 mph 84% 0.00 in 671 W/m2
13:20 65.1 °F 59.8 °F 29.93 in SW 3 mph 8 mph 83% 0.00 in 633 W/m2
13:30 65.8 °F 60.5 °F 29.93 in SW 3 mph 6 mph 83% 0.00 in 659 W/m2
13:40 66.4 °F 60.4 °F 29.93 in SW 5 mph 7 mph 81% 0.00 in 487 W/m2
13:50 66.7 °F 60.4 °F 29.93 in SSW 3 mph 7 mph 80% 0.00 in 601 W/m2
14:00 67.1 °F 60.4 °F 29.93 in SW 2 mph 9 mph 79% 0.00 in 521 W/m2
14:10 67.3 °F 60.5 °F 29.92 in WSW 2 mph 8 mph 79% 0.00 in 349 W/m2
14:20 67.3 °F 60.2 °F 29.92 in SW 1 mph 6 mph 78% 0.00 in 404 W/m2
14:30 67.9 °F 60.8 °F 29.91 in SW 3 mph 8 mph 78% 0.00 in 732 W/m2
14:40 69.2 °F 61.7 °F 29.91 in SW 5 mph 12 mph 77% 0.00 in 713 W/m2
14:50 69.4 °F 61.2 °F 29.91 in SW 3 mph 10 mph 75% 0.00 in 432 W/m2
15:00 69.1 °F 60.8 °F 29.91 in SW 5 mph 9 mph 75% 0.00 in 240 W/m2
15:10 68.4 °F 60.9 °F 29.91 in SW 5 mph 9 mph 77% 0.00 in 372 W/m2
15:20 68.4 °F 60.9 °F 29.91 in SW 8 mph 12 mph 77% 0.00 in 425 W/m2
15:30 68.2 °F 60.7 °F 29.91 in WSW 8 mph 12 mph 77% 0.00 in 362 W/m2
15:40 68.2 °F 60.7 °F 29.91 in SW 7 mph 12 mph 77% 0.00 in 328 W/m2
15:50 67.7 °F 60.2 °F 29.91 in SW 7 mph 10 mph 77% 0.00 in 270 W/m2
16:00 67.5 °F 60.4 °F 29.91 in SW 7 mph 11 mph 78% 0.00 in 325 W/m2
16:10 67.3 °F 60.2 °F 29.91 in SW 8 mph 12 mph 78% 0.00 in 283 W/m2
16:20 67.1 °F 60 °F 29.92 in SW 10 mph 14 mph 78% 0.00 in 156 W/m2
16:30 66.7 °F 60 °F 29.92 in SW 8 mph 13 mph 79% 0.00 in 131 W/m2
16:40 66.4 °F 60 °F 29.92 in SW 6 mph 10 mph 80% 0.00 in 184 W/m2
16:50 66 °F 59.3 °F 29.92 in SW 7 mph 13 mph 79% 0.00 in 114 W/m2
17:00 65.7 °F 59 °F 29.93 in WSW 5 mph 10 mph 79% 0.00 in 99 W/m2
17:10 65.5 °F 58.8 °F 29.93 in WSW 2 mph 13 mph 79% 0.00 in 79 W/m2
17:20 65.3 °F 58.6 °F 29.93 in SW 6 mph 8 mph 79% 0.00 in 57 W/m2
17:30 64.8 °F 58.4 °F 29.94 in WSW 6 mph 12 mph 80% 0.00 in 60 W/m2
17:40 64.3 °F 58 °F 29.94 in WSW 6 mph 12 mph 80% 0.00 in 99 W/m2
17:50 63.9 °F 57.9 °F 29.94 in WSW 5 mph 15 mph 81% 0.00 in 49 W/m2
18:00 63.4 °F 58.1 °F 29.94 in WSW 6 mph 12 mph 83% 0.00 in 32 W/m2
18:10 63.1 °F 57.2 °F 29.94 in WSW 7 mph 13 mph 81% 0.00 in 25 W/m2
18:20 62.8 °F 57.5 °F 29.94 in WSW 5 mph 10 mph 83% 0.00 in 13 W/m2
Knjazevac, Serbia
Compliments of Weather Underground - 2 mb